sensor_id;sensor_type;location;lat;lon;timestamp;P1;durP1;ratioP1;P2;durP2;ratioP2
53903;SDS011;39812;52.430;16.936;2022-08-02T00:00:51;4.22;;;2.92;;
53903;SDS011;39812;52.430;16.936;2022-08-02T00:03:16;6.57;;;3.35;;
53903;SDS011;39812;52.430;16.936;2022-08-02T00:05:42;3.85;;;3.03;;
53903;SDS011;39812;52.430;16.936;2022-08-02T00:08:07;5.13;;;3.35;;
53903;SDS011;39812;52.430;16.936;2022-08-02T00:10:33;4.45;;;3.40;;
53903;SDS011;39812;52.430;16.936;2022-08-02T00:12:58;4.95;;;3.00;;
53903;SDS011;39812;52.430;16.936;2022-08-02T00:15:24;3.85;;;2.95;;
53903;SDS011;39812;52.430;16.936;2022-08-02T00:17:50;9.85;;;3.25;;
53903;SDS011;39812;52.430;16.936;2022-08-02T00:20:15;4.55;;;3.50;;
53903;SDS011;39812;52.430;16.936;2022-08-02T00:22:41;4.10;;;3.15;;
53903;SDS011;39812;52.430;16.936;2022-08-02T00:25:06;5.32;;;3.17;;
53903;SDS011;39812;52.430;16.936;2022-08-02T00:27:32;4.43;;;3.15;;
53903;SDS011;39812;52.430;16.936;2022-08-02T00:29:57;5.00;;;3.25;;
53903;SDS011;39812;52.430;16.936;2022-08-02T00:32:23;5.03;;;3.10;;
53903;SDS011;39812;52.430;16.936;2022-08-02T00:34:49;5.30;;;3.50;;
53903;SDS011;39812;52.430;16.936;2022-08-02T00:37:15;4.65;;;3.10;;
53903;SDS011;39812;52.430;16.936;2022-08-02T00:39:40;3.75;;;2.95;;
53903;SDS011;39812;52.430;16.936;2022-08-02T00:42:07;8.43;;;3.40;;
53903;SDS011;39812;52.430;16.936;2022-08-02T00:44:33;5.88;;;3.50;;
53903;SDS011;39812;52.430;16.936;2022-08-02T00:46:58;5.07;;;3.15;;
53903;SDS011;39812;52.430;16.936;2022-08-02T00:49:24;5.35;;;3.63;;
53903;SDS011;39812;52.430;16.936;2022-08-02T00:51:50;5.20;;;3.60;;
53903;SDS011;39812;52.430;16.936;2022-08-02T00:54:15;4.30;;;3.50;;
53903;SDS011;39812;52.430;16.936;2022-08-02T00:56:41;4.82;;;3.03;;
53903;SDS011;39812;52.430;16.936;2022-08-02T00:59:07;4.85;;;3.45;;
53903;SDS011;39812;52.430;16.936;2022-08-02T01:01:32;4.50;;;3.20;;
53903;SDS011;39812;52.430;16.936;2022-08-02T01:04:04;4.38;;;3.15;;
53903;SDS011;39812;52.430;16.936;2022-08-02T01:06:34;5.20;;;3.15;;
53903;SDS011;39812;52.430;16.936;2022-08-02T01:09:01;4.57;;;3.28;;
53903;SDS011;39812;52.430;16.936;2022-08-02T01:11:28;5.00;;;3.22;;
53903;SDS011;39812;52.430;16.936;2022-08-02T01:14:02;5.63;;;3.78;;
53903;SDS011;39812;52.430;16.936;2022-08-02T01:16:47;5.72;;;3.45;;
53903;SDS011;39812;52.430;16.936;2022-08-02T01:22:04;5.47;;;3.67;;
53903;SDS011;39812;52.430;16.936;2022-08-02T01:25:01;6.93;;;4.20;;
53903;SDS011;39812;52.430;16.936;2022-08-02T01:27:42;4.60;;;3.42;;
53903;SDS011;39812;52.430;16.936;2022-08-02T01:30:18;4.75;;;3.15;;
53903;SDS011;39812;52.430;16.936;2022-08-02T01:32:45;4.50;;;3.50;;
53903;SDS011;39812;52.430;16.936;2022-08-02T01:35:16;5.28;;;3.58;;
53903;SDS011;39812;52.430;16.936;2022-08-02T01:37:48;4.75;;;3.55;;
53903;SDS011;39812;52.430;16.936;2022-08-02T01:40:25;5.00;;;3.42;;
53903;SDS011;39812;52.430;16.936;2022-08-02T01:42:54;6.15;;;3.95;;
53903;SDS011;39812;52.430;16.936;2022-08-02T01:45:22;5.35;;;3.80;;
53903;SDS011;39812;52.430;16.936;2022-08-02T01:47:49;5.57;;;3.55;;
53903;SDS011;39812;52.430;16.936;2022-08-02T01:50:16;4.13;;;3.70;;
53903;SDS011;39812;52.430;16.936;2022-08-02T01:52:47;5.50;;;3.83;;
53903;SDS011;39812;52.430;16.936;2022-08-02T01:55:17;6.47;;;3.83;;
53903;SDS011;39812;52.430;16.936;2022-08-02T01:57:47;6.07;;;3.70;;
53903;SDS011;39812;52.430;16.936;2022-08-02T02:00:15;6.72;;;3.47;;
53903;SDS011;39812;52.430;16.936;2022-08-02T02:02:44;4.45;;;3.35;;
53903;SDS011;39812;52.430;16.936;2022-08-02T02:05:15;6.13;;;3.63;;
53903;SDS011;39812;52.430;16.936;2022-08-02T02:07:44;4.85;;;3.30;;
53903;SDS011;39812;52.430;16.936;2022-08-02T02:10:13;6.82;;;3.78;;
53903;SDS011;39812;52.430;16.936;2022-08-02T02:12:45;5.00;;;3.28;;
53903;SDS011;39812;52.430;16.936;2022-08-02T02:15:13;7.43;;;3.70;;
53903;SDS011;39812;52.430;16.936;2022-08-02T02:17:41;6.13;;;3.63;;
53903;SDS011;39812;52.430;16.936;2022-08-02T02:20:09;9.30;;;3.85;;
53903;SDS011;39812;52.430;16.936;2022-08-02T02:22:37;4.95;;;3.70;;
53903;SDS011;39812;52.430;16.936;2022-08-02T02:25:03;4.43;;;3.40;;
53903;SDS011;39812;52.430;16.936;2022-08-02T02:27:29;5.55;;;3.90;;
53903;SDS011;39812;52.430;16.936;2022-08-02T02:29:56;5.28;;;4.00;;
53903;SDS011;39812;52.430;16.936;2022-08-02T02:32:22;6.00;;;4.60;;
53903;SDS011;39812;52.430;16.936;2022-08-02T02:34:51;6.57;;;5.00;;
53903;SDS011;39812;52.430;16.936;2022-08-02T02:37:20;5.53;;;4.28;;
53903;SDS011;39812;52.430;16.936;2022-08-02T02:39:47;7.10;;;4.63;;
53903;SDS011;39812;52.430;16.936;2022-08-02T02:42:16;6.50;;;4.20;;
53903;SDS011;39812;52.430;16.936;2022-08-02T02:44:43;6.72;;;4.53;;
53903;SDS011;39812;52.430;16.936;2022-08-02T02:47:10;6.80;;;4.88;;
53903;SDS011;39812;52.430;16.936;2022-08-02T02:49:38;6.72;;;4.47;;
53903;SDS011;39812;52.430;16.936;2022-08-02T02:52:04;6.05;;;4.70;;
53903;SDS011;39812;52.430;16.936;2022-08-02T02:54:31;5.10;;;4.60;;
53903;SDS011;39812;52.430;16.936;2022-08-02T02:56:57;7.63;;;4.50;;
53903;SDS011;39812;52.430;16.936;2022-08-02T02:59:24;6.63;;;4.60;;
53903;SDS011;39812;52.430;16.936;2022-08-02T03:01:50;5.68;;;4.65;;
53903;SDS011;39812;52.430;16.936;2022-08-02T03:04:17;5.68;;;4.68;;
53903;SDS011;39812;52.430;16.936;2022-08-02T03:06:43;7.63;;;4.78;;
53903;SDS011;39812;52.430;16.936;2022-08-02T03:09:09;6.38;;;4.80;;
53903;SDS011;39812;52.430;16.936;2022-08-02T03:11:35;7.05;;;4.28;;
53903;SDS011;39812;52.430;16.936;2022-08-02T03:14:02;7.13;;;5.70;;
53903;SDS011;39812;52.430;16.936;2022-08-02T03:16:32;8.38;;;5.00;;
53903;SDS011;39812;52.430;16.936;2022-08-02T03:18:59;6.88;;;5.25;;
53903;SDS011;39812;52.430;16.936;2022-08-02T03:21:26;6.25;;;4.63;;
53903;SDS011;39812;52.430;16.936;2022-08-02T03:23:52;7.63;;;5.63;;
53903;SDS011;39812;52.430;16.936;2022-08-02T03:26:17;8.48;;;5.40;;
53903;SDS011;39812;52.430;16.936;2022-08-02T03:28:43;7.85;;;5.03;;
53903;SDS011;39812;52.430;16.936;2022-08-02T03:31:08;7.25;;;5.43;;
53903;SDS011;39812;52.430;16.936;2022-08-02T03:33:34;8.57;;;4.75;;
53903;SDS011;39812;52.430;16.936;2022-08-02T03:36:03;7.00;;;4.78;;
53903;SDS011;39812;52.430;16.936;2022-08-02T03:38:32;8.63;;;5.20;;
53903;SDS011;39812;52.430;16.936;2022-08-02T03:40:59;6.63;;;5.07;;
53903;SDS011;39812;52.430;16.936;2022-08-02T03:43:26;5.50;;;4.60;;
53903;SDS011;39812;52.430;16.936;2022-08-02T03:45:53;6.22;;;4.53;;
53903;SDS011;39812;52.430;16.936;2022-08-02T03:48:20;6.28;;;5.07;;
53903;SDS011;39812;52.430;16.936;2022-08-02T03:50:46;6.65;;;5.45;;
53903;SDS011;39812;52.430;16.936;2022-08-02T03:53:13;6.03;;;4.68;;
53903;SDS011;39812;52.430;16.936;2022-08-02T03:55:40;7.88;;;5.10;;
53903;SDS011;39812;52.430;16.936;2022-08-02T03:58:06;5.90;;;4.82;;
53903;SDS011;39812;52.430;16.936;2022-08-02T04:00:31;10.23;;;5.00;;
53903;SDS011;39812;52.430;16.936;2022-08-02T04:02:57;6.25;;;5.50;;
53903;SDS011;39812;52.430;16.936;2022-08-02T04:05:23;7.25;;;5.10;;
53903;SDS011;39812;52.430;16.936;2022-08-02T04:07:48;6.72;;;5.15;;
53903;SDS011;39812;52.430;16.936;2022-08-02T04:10:15;8.27;;;4.95;;
53903;SDS011;39812;52.430;16.936;2022-08-02T04:12:41;5.88;;;4.72;;
53903;SDS011;39812;52.430;16.936;2022-08-02T04:15:06;5.82;;;4.72;;
53903;SDS011;39812;52.430;16.936;2022-08-02T04:17:36;7.38;;;4.70;;
53903;SDS011;39812;52.430;16.936;2022-08-02T04:20:11;5.28;;;4.50;;
53903;SDS011;39812;52.430;16.936;2022-08-02T04:22:48;5.38;;;4.60;;
53903;SDS011;39812;52.430;16.936;2022-08-02T04:25:19;9.00;;;4.82;;
53903;SDS011;39812;52.430;16.936;2022-08-02T04:27:45;6.80;;;4.25;;
53903;SDS011;39812;52.430;16.936;2022-08-02T04:30:11;7.20;;;4.63;;
53903;SDS011;39812;52.430;16.936;2022-08-02T04:32:37;5.43;;;4.05;;
53903;SDS011;39812;52.430;16.936;2022-08-02T04:35:04;6.20;;;4.60;;
53903;SDS011;39812;52.430;16.936;2022-08-02T04:37:30;6.00;;;4.50;;
53903;SDS011;39812;52.430;16.936;2022-08-02T04:39:56;8.13;;;5.28;;
53903;SDS011;39812;52.430;16.936;2022-08-02T04:42:22;5.43;;;4.70;;
53903;SDS011;39812;52.430;16.936;2022-08-02T04:44:49;7.78;;;4.68;;
53903;SDS011;39812;52.430;16.936;2022-08-02T04:47:16;7.45;;;4.13;;
53903;SDS011;39812;52.430;16.936;2022-08-02T04:49:41;4.97;;;4.30;;
53903;SDS011;39812;52.430;16.936;2022-08-02T04:52:07;4.72;;;3.85;;
53903;SDS011;39812;52.430;16.936;2022-08-02T04:54:33;7.35;;;4.75;;
53903;SDS011;39812;52.430;16.936;2022-08-02T04:56:58;6.18;;;4.10;;
53903;SDS011;39812;52.430;16.936;2022-08-02T04:59:23;6.28;;;4.07;;
53903;SDS011;39812;52.430;16.936;2022-08-02T05:01:49;6.97;;;4.00;;
53903;SDS011;39812;52.430;16.936;2022-08-02T05:04:14;8.20;;;4.15;;
53903;SDS011;39812;52.430;16.936;2022-08-02T05:06:40;4.03;;;3.55;;
53903;SDS011;39812;52.430;16.936;2022-08-02T05:09:05;7.85;;;4.40;;
53903;SDS011;39812;52.430;16.936;2022-08-02T05:11:31;6.13;;;3.92;;
53903;SDS011;39812;52.430;16.936;2022-08-02T05:13:57;5.93;;;3.97;;
53903;SDS011;39812;52.430;16.936;2022-08-02T05:16:22;8.13;;;4.40;;
53903;SDS011;39812;52.430;16.936;2022-08-02T05:18:50;7.80;;;4.22;;
53903;SDS011;39812;52.430;16.936;2022-08-02T05:21:15;5.50;;;3.90;;
53903;SDS011;39812;52.430;16.936;2022-08-02T05:23:41;5.78;;;3.75;;
53903;SDS011;39812;52.430;16.936;2022-08-02T05:26:06;6.38;;;3.60;;
53903;SDS011;39812;52.430;16.936;2022-08-02T05:28:32;4.35;;;3.28;;
53903;SDS011;39812;52.430;16.936;2022-08-02T05:30:57;5.40;;;3.53;;
53903;SDS011;39812;52.430;16.936;2022-08-02T05:33:22;6.13;;;3.63;;
53903;SDS011;39812;52.430;16.936;2022-08-02T05:35:48;7.65;;;3.80;;
53903;SDS011;39812;52.430;16.936;2022-08-02T05:38:13;4.93;;;3.25;;
53903;SDS011;39812;52.430;16.936;2022-08-02T05:40:39;6.85;;;3.67;;
53903;SDS011;39812;52.430;16.936;2022-08-02T05:43:14;9.80;;;3.60;;
53903;SDS011;39812;52.430;16.936;2022-08-02T05:45:39;5.25;;;3.28;;
53903;SDS011;39812;52.430;16.936;2022-08-02T05:48:05;6.03;;;2.75;;
53903;SDS011;39812;52.430;16.936;2022-08-02T05:50:31;8.63;;;2.83;;
53903;SDS011;39812;52.430;16.936;2022-08-02T05:53:22;5.57;;;2.38;;
53903;SDS011;39812;52.430;16.936;2022-08-02T05:56:02;4.97;;;2.60;;
53903;SDS011;39812;52.430;16.936;2022-08-02T06:01:34;6.20;;;2.33;;
53903;SDS011;39812;52.430;16.936;2022-08-02T06:04:11;4.78;;;2.60;;
53903;SDS011;39812;52.430;16.936;2022-08-02T06:06:44;4.50;;;2.17;;
53903;SDS011;39812;52.430;16.936;2022-08-02T06:09:15;5.68;;;2.35;;
53903;SDS011;39812;52.430;16.936;2022-08-02T06:11:46;5.18;;;2.60;;
53903;SDS011;39812;52.430;16.936;2022-08-02T06:14:15;3.85;;;2.20;;
53903;SDS011;39812;52.430;16.936;2022-08-02T06:16:42;4.38;;;2.08;;
53903;SDS011;39812;52.430;16.936;2022-08-02T06:19:10;4.15;;;2.10;;
53903;SDS011;39812;52.430;16.936;2022-08-02T06:21:36;6.55;;;2.90;;
53903;SDS011;39812;52.430;16.936;2022-08-02T06:24:05;6.35;;;1.80;;
53903;SDS011;39812;52.430;16.936;2022-08-02T06:26:32;6.30;;;2.05;;
53903;SDS011;39812;52.430;16.936;2022-08-02T06:29:00;3.70;;;1.52;;
53903;SDS011;39812;52.430;16.936;2022-08-02T06:31:26;5.82;;;1.63;;
53903;SDS011;39812;52.430;16.936;2022-08-02T06:33:52;2.80;;;1.23;;
53903;SDS011;39812;52.430;16.936;2022-08-02T06:36:26;2.83;;;1.48;;
53903;SDS011;39812;52.430;16.936;2022-08-02T06:39:07;4.25;;;1.35;;
53903;SDS011;39812;52.430;16.936;2022-08-02T06:41:39;2.90;;;1.38;;
53903;SDS011;39812;52.430;16.936;2022-08-02T06:44:06;5.82;;;1.60;;
53903;SDS011;39812;52.430;16.936;2022-08-02T06:46:32;4.43;;;1.65;;
53903;SDS011;39812;52.430;16.936;2022-08-02T06:48:58;2.83;;;1.20;;
53903;SDS011;39812;52.430;16.936;2022-08-02T06:51:24;4.88;;;1.30;;
53903;SDS011;39812;52.430;16.936;2022-08-02T06:53:50;6.05;;;1.35;;
53903;SDS011;39812;52.430;16.936;2022-08-02T06:56:15;3.50;;;1.45;;
53903;SDS011;39812;52.430;16.936;2022-08-02T06:58:41;6.13;;;1.60;;
53903;SDS011;39812;52.430;16.936;2022-08-02T07:01:06;7.68;;;1.77;;
53903;SDS011;39812;52.430;16.936;2022-08-02T07:03:33;5.35;;;1.60;;
53903;SDS011;39812;52.430;16.936;2022-08-02T07:05:59;2.20;;;1.08;;
53903;SDS011;39812;52.430;16.936;2022-08-02T07:08:25;4.63;;;1.77;;
53903;SDS011;39812;52.430;16.936;2022-08-02T07:10:56;9.23;;;1.40;;
53903;SDS011;39812;52.430;16.936;2022-08-02T07:13:28;3.53;;;1.20;;
53903;SDS011;39812;52.430;16.936;2022-08-02T07:15:54;5.20;;;1.35;;
53903;SDS011;39812;52.430;16.936;2022-08-02T07:18:23;6.28;;;1.40;;
53903;SDS011;39812;52.430;16.936;2022-08-02T07:20:49;4.80;;;1.38;;
53903;SDS011;39812;52.430;16.936;2022-08-02T07:23:15;3.38;;;1.25;;
53903;SDS011;39812;52.430;16.936;2022-08-02T07:25:41;2.97;;;1.55;;
53903;SDS011;39812;52.430;16.936;2022-08-02T07:28:08;2.97;;;1.17;;
53903;SDS011;39812;52.430;16.936;2022-08-02T07:30:35;4.15;;;1.20;;
53903;SDS011;39812;52.430;16.936;2022-08-02T07:33:01;4.55;;;1.38;;
53903;SDS011;39812;52.430;16.936;2022-08-02T07:35:28;4.45;;;1.50;;
53903;SDS011;39812;52.430;16.936;2022-08-02T07:37:54;5.30;;;1.40;;
53903;SDS011;39812;52.430;16.936;2022-08-02T07:40:20;3.72;;;1.30;;
53903;SDS011;39812;52.430;16.936;2022-08-02T07:42:50;5.60;;;1.27;;
53903;SDS011;39812;52.430;16.936;2022-08-02T07:45:17;6.53;;;1.50;;
53903;SDS011;39812;52.430;16.936;2022-08-02T07:47:43;6.25;;;1.55;;
53903;SDS011;39812;52.430;16.936;2022-08-02T07:50:10;4.03;;;1.42;;
53903;SDS011;39812;52.430;16.936;2022-08-02T07:52:36;3.10;;;1.42;;
53903;SDS011;39812;52.430;16.936;2022-08-02T07:55:03;3.08;;;1.30;;
53903;SDS011;39812;52.430;16.936;2022-08-02T07:57:29;4.75;;;1.23;;
53903;SDS011;39812;52.430;16.936;2022-08-02T07:59:55;5.70;;;1.55;;
53903;SDS011;39812;52.430;16.936;2022-08-02T08:02:20;4.03;;;1.30;;
53903;SDS011;39812;52.430;16.936;2022-08-02T08:04:48;4.25;;;1.38;;
53903;SDS011;39812;52.430;16.936;2022-08-02T08:07:17;4.13;;;1.23;;
53903;SDS011;39812;52.430;16.936;2022-08-02T08:09:44;2.90;;;1.42;;
53903;SDS011;39812;52.430;16.936;2022-08-02T08:12:11;3.88;;;1.48;;
53903;SDS011;39812;52.430;16.936;2022-08-02T08:14:37;2.22;;;1.40;;
53903;SDS011;39812;52.430;16.936;2022-08-02T08:17:03;3.33;;;1.23;;
53903;SDS011;39812;52.430;16.936;2022-08-02T08:19:29;4.07;;;1.20;;
53903;SDS011;39812;52.430;16.936;2022-08-02T08:21:58;4.40;;;1.50;;
53903;SDS011;39812;52.430;16.936;2022-08-02T08:30:59;4.72;;;1.35;;
53903;SDS011;39812;52.430;16.936;2022-08-02T08:33:25;2.42;;;1.05;;
53903;SDS011;39812;52.430;16.936;2022-08-02T08:35:51;3.17;;;1.23;;
53903;SDS011;39812;52.430;16.936;2022-08-02T08:38:16;4.70;;;1.10;;
53903;SDS011;39812;52.430;16.936;2022-08-02T08:40:42;4.15;;;1.02;;
53903;SDS011;39812;52.430;16.936;2022-08-02T08:43:08;2.38;;;1.08;;
53903;SDS011;39812;52.430;16.936;2022-08-02T08:45:37;4.20;;;1.05;;
53903;SDS011;39812;52.430;16.936;2022-08-02T08:48:05;3.10;;;1.08;;
53903;SDS011;39812;52.430;16.936;2022-08-02T08:50:36;4.35;;;1.30;;
53903;SDS011;39812;52.430;16.936;2022-08-02T08:53:06;5.18;;;1.10;;
53903;SDS011;39812;52.430;16.936;2022-08-02T08:55:33;1.67;;;0.90;;
53903;SDS011;39812;52.430;16.936;2022-08-02T08:58:00;2.17;;;1.20;;
53903;SDS011;39812;52.430;16.936;2022-08-02T09:00:26;3.17;;;0.93;;
53903;SDS011;39812;52.430;16.936;2022-08-02T09:02:54;3.50;;;1.10;;
53903;SDS011;39812;52.430;16.936;2022-08-02T09:05:19;3.05;;;1.02;;
53903;SDS011;39812;52.430;16.936;2022-08-02T09:07:49;3.60;;;1.20;;
53903;SDS011;39812;52.430;16.936;2022-08-02T09:13:12;2.42;;;1.08;;
53903;SDS011;39812;52.430;16.936;2022-08-02T09:15:53;2.33;;;1.13;;
53903;SDS011;39812;52.430;16.936;2022-08-02T09:18:34;3.17;;;1.20;;
53903;SDS011;39812;52.430;16.936;2022-08-02T09:21:10;5.03;;;1.30;;
53903;SDS011;39812;52.430;16.936;2022-08-02T09:23:36;7.07;;;1.25;;
53903;SDS011;39812;52.430;16.936;2022-08-02T09:26:08;4.60;;;1.20;;
53903;SDS011;39812;52.430;16.936;2022-08-02T09:28:36;3.97;;;1.40;;
53903;SDS011;39812;52.430;16.936;2022-08-02T09:31:10;5.38;;;1.20;;
53903;SDS011;39812;52.430;16.936;2022-08-02T09:33:42;2.03;;;1.02;;
53903;SDS011;39812;52.430;16.936;2022-08-02T09:36:10;2.88;;;1.10;;
53903;SDS011;39812;52.430;16.936;2022-08-02T09:38:40;3.13;;;1.20;;
53903;SDS011;39812;52.430;16.936;2022-08-02T09:41:26;5.18;;;1.10;;
53903;SDS011;39812;52.430;16.936;2022-08-02T09:43:53;3.03;;;1.00;;
53903;SDS011;39812;52.430;16.936;2022-08-02T09:46:22;3.83;;;1.13;;
53903;SDS011;39812;52.430;16.936;2022-08-02T09:48:56;2.15;;;0.90;;
53903;SDS011;39812;52.430;16.936;2022-08-02T09:51:27;4.70;;;1.20;;
53903;SDS011;39812;52.430;16.936;2022-08-02T09:54:02;4.57;;;1.75;;
53903;SDS011;39812;52.430;16.936;2022-08-02T09:56:46;3.50;;;1.05;;
53903;SDS011;39812;52.430;16.936;2022-08-02T09:59:14;2.97;;;0.90;;
53903;SDS011;39812;52.430;16.936;2022-08-02T10:01:41;4.32;;;0.98;;
53903;SDS011;39812;52.430;16.936;2022-08-02T10:04:09;6.53;;;1.40;;
53903;SDS011;39812;52.430;16.936;2022-08-02T10:06:36;7.25;;;1.42;;
53903;SDS011;39812;52.430;16.936;2022-08-02T10:09:03;3.60;;;1.05;;
53903;SDS011;39812;52.430;16.936;2022-08-02T10:11:30;2.17;;;0.90;;
53903;SDS011;39812;52.430;16.936;2022-08-02T10:13:56;5.07;;;1.27;;
53903;SDS011;39812;52.430;16.936;2022-08-02T10:16:22;5.57;;;1.20;;
53903;SDS011;39812;52.430;16.936;2022-08-02T10:18:49;7.13;;;1.40;;
53903;SDS011;39812;52.430;16.936;2022-08-02T10:21:26;1.75;;;0.80;;
53903;SDS011;39812;52.430;16.936;2022-08-02T10:24:04;6.30;;;1.15;;
53903;SDS011;39812;52.430;16.936;2022-08-02T10:26:33;5.80;;;1.05;;
53903;SDS011;39812;52.430;16.936;2022-08-02T10:28:59;3.33;;;1.00;;
53903;SDS011;39812;52.430;16.936;2022-08-02T10:31:26;3.53;;;1.02;;
53903;SDS011;39812;52.430;16.936;2022-08-02T10:33:57;2.28;;;0.93;;
53903;SDS011;39812;52.430;16.936;2022-08-02T10:36:25;3.35;;;1.23;;
53903;SDS011;39812;52.430;16.936;2022-08-02T10:38:54;5.70;;;1.40;;
53903;SDS011;39812;52.430;16.936;2022-08-02T10:44:27;3.78;;;1.35;;
53903;SDS011;39812;52.430;16.936;2022-08-02T10:52:18;2.70;;;1.10;;
53903;SDS011;39812;52.430;16.936;2022-08-02T10:54:49;4.53;;;0.95;;
53903;SDS011;39812;52.430;16.936;2022-08-02T10:57:21;3.25;;;1.02;;
53903;SDS011;39812;52.430;16.936;2022-08-02T11:00:02;2.83;;;0.85;;
53903;SDS011;39812;52.430;16.936;2022-08-02T11:05:12;5.82;;;1.20;;
53903;SDS011;39812;52.430;16.936;2022-08-02T11:07:41;2.03;;;0.85;;
53903;SDS011;39812;52.430;16.936;2022-08-02T11:12:59;2.45;;;0.85;;
53903;SDS011;39812;52.430;16.936;2022-08-02T11:15:47;1.83;;;0.90;;
53903;SDS011;39812;52.430;16.936;2022-08-02T11:18:22;3.47;;;1.00;;
53903;SDS011;39812;52.430;16.936;2022-08-02T11:21:27;4.05;;;1.05;;
53903;SDS011;39812;52.430;16.936;2022-08-02T11:24:23;2.75;;;1.20;;
53903;SDS011;39812;52.430;16.936;2022-08-02T11:26:56;2.65;;;0.88;;
53903;SDS011;39812;52.430;16.936;2022-08-02T11:29:39;3.17;;;1.05;;
53903;SDS011;39812;52.430;16.936;2022-08-02T11:32:07;3.17;;;0.98;;
53903;SDS011;39812;52.430;16.936;2022-08-02T11:34:50;2.95;;;0.90;;
53903;SDS011;39812;52.430;16.936;2022-08-02T11:37:34;3.63;;;0.82;;
53903;SDS011;39812;52.430;16.936;2022-08-02T11:40:05;3.40;;;0.90;;
53903;SDS011;39812;52.430;16.936;2022-08-02T11:42:32;3.35;;;0.95;;
53903;SDS011;39812;52.430;16.936;2022-08-02T11:44:59;4.53;;;1.00;;
53903;SDS011;39812;52.430;16.936;2022-08-02T11:47:25;3.22;;;0.82;;
53903;SDS011;39812;52.430;16.936;2022-08-02T11:49:51;2.47;;;0.95;;
53903;SDS011;39812;52.430;16.936;2022-08-02T11:52:17;4.25;;;1.00;;
53903;SDS011;39812;52.430;16.936;2022-08-02T11:54:42;4.10;;;0.90;;
53903;SDS011;39812;52.430;16.936;2022-08-02T11:57:18;2.75;;;0.93;;
53903;SDS011;39812;52.430;16.936;2022-08-02T11:59:46;4.53;;;0.90;;
53903;SDS011;39812;52.430;16.936;2022-08-02T12:02:13;5.78;;;0.93;;
53903;SDS011;39812;52.430;16.936;2022-08-02T12:04:40;3.63;;;1.10;;
53903;SDS011;39812;52.430;16.936;2022-08-02T12:07:06;3.35;;;0.93;;
53903;SDS011;39812;52.430;16.936;2022-08-02T12:09:33;3.10;;;1.10;;
53903;SDS011;39812;52.430;16.936;2022-08-02T12:12:01;5.97;;;0.80;;
53903;SDS011;39812;52.430;16.936;2022-08-02T12:14:27;5.47;;;1.00;;
53903;SDS011;39812;52.430;16.936;2022-08-02T12:16:54;5.10;;;1.10;;
53903;SDS011;39812;52.430;16.936;2022-08-02T12:19:40;3.72;;;1.10;;
53903;SDS011;39812;52.430;16.936;2022-08-02T12:22:07;2.45;;;0.70;;
53903;SDS011;39812;52.430;16.936;2022-08-02T12:24:35;4.28;;;1.20;;
53903;SDS011;39812;52.430;16.936;2022-08-02T12:27:01;3.83;;;0.90;;
53903;SDS011;39812;52.430;16.936;2022-08-02T12:29:30;4.43;;;0.80;;
53903;SDS011;39812;52.430;16.936;2022-08-02T12:32:01;4.20;;;1.33;;
53903;SDS011;39812;52.430;16.936;2022-08-02T12:34:28;3.22;;;0.90;;
53903;SDS011;39812;52.430;16.936;2022-08-02T12:36:59;3.10;;;0.77;;
53903;SDS011;39812;52.430;16.936;2022-08-02T12:39:38;4.70;;;1.10;;
53903;SDS011;39812;52.430;16.936;2022-08-02T12:42:09;3.60;;;1.33;;
53903;SDS011;39812;52.430;16.936;2022-08-02T12:44:38;2.33;;;0.80;;
53903;SDS011;39812;52.430;16.936;2022-08-02T12:47:16;4.13;;;1.20;;
53903;SDS011;39812;52.430;16.936;2022-08-02T12:49:42;3.25;;;1.10;;
53903;SDS011;39812;52.430;16.936;2022-08-02T12:52:21;4.05;;;1.00;;
53903;SDS011;39812;52.430;16.936;2022-08-02T12:54:47;1.63;;;0.80;;
53903;SDS011;39812;52.430;16.936;2022-08-02T12:57:15;2.85;;;0.82;;
53903;SDS011;39812;52.430;16.936;2022-08-02T12:59:42;2.83;;;1.05;;
53903;SDS011;39812;52.430;16.936;2022-08-02T13:02:13;2.90;;;0.90;;
53903;SDS011;39812;52.430;16.936;2022-08-02T13:04:40;4.65;;;1.00;;
53903;SDS011;39812;52.430;16.936;2022-08-02T13:07:06;3.17;;;0.80;;
53903;SDS011;39812;52.430;16.936;2022-08-02T13:09:35;6.32;;;0.90;;
53903;SDS011;39812;52.430;16.936;2022-08-02T13:12:05;2.13;;;0.73;;
53903;SDS011;39812;52.430;16.936;2022-08-02T13:14:31;3.22;;;1.10;;
53903;SDS011;39812;52.430;16.936;2022-08-02T13:16:57;3.85;;;0.90;;
53903;SDS011;39812;52.430;16.936;2022-08-02T13:19:23;3.28;;;1.00;;
53903;SDS011;39812;52.430;16.936;2022-08-02T13:21:49;3.53;;;1.00;;
53903;SDS011;39812;52.430;16.936;2022-08-02T13:24:14;3.05;;;0.90;;
53903;SDS011;39812;52.430;16.936;2022-08-02T13:26:41;1.70;;;0.60;;
53903;SDS011;39812;52.430;16.936;2022-08-02T13:29:07;3.67;;;1.20;;
53903;SDS011;39812;52.430;16.936;2022-08-02T13:31:33;1.90;;;1.00;;
53903;SDS011;39812;52.430;16.936;2022-08-02T13:34:01;4.53;;;1.35;;
53903;SDS011;39812;52.430;16.936;2022-08-02T13:36:30;4.05;;;1.10;;
53903;SDS011;39812;52.430;16.936;2022-08-02T13:38:57;3.28;;;1.00;;
53903;SDS011;39812;52.430;16.936;2022-08-02T13:41:23;3.28;;;1.00;;
53903;SDS011;39812;52.430;16.936;2022-08-02T13:43:48;3.95;;;1.20;;
53903;SDS011;39812;52.430;16.936;2022-08-02T13:46:14;3.65;;;1.20;;
53903;SDS011;39812;52.430;16.936;2022-08-02T13:48:40;4.10;;;1.33;;
53903;SDS011;39812;52.430;16.936;2022-08-02T13:51:05;3.72;;;1.10;;
53903;SDS011;39812;52.430;16.936;2022-08-02T13:53:35;3.10;;;1.30;;
53903;SDS011;39812;52.430;16.936;2022-08-02T13:56:04;4.50;;;1.02;;
53903;SDS011;39812;52.430;16.936;2022-08-02T13:58:30;3.28;;;1.02;;
53903;SDS011;39812;52.430;16.936;2022-08-02T14:00:55;5.65;;;1.10;;
53903;SDS011;39812;52.430;16.936;2022-08-02T14:03:21;3.28;;;1.15;;
53903;SDS011;39812;52.430;16.936;2022-08-02T14:05:46;6.90;;;1.08;;
53903;SDS011;39812;52.430;16.936;2022-08-02T14:08:12;4.05;;;1.20;;
53903;SDS011;39812;52.430;16.936;2022-08-02T14:10:38;2.05;;;0.80;;
53903;SDS011;39812;52.430;16.936;2022-08-02T14:13:03;4.03;;;1.00;;
53903;SDS011;39812;52.430;16.936;2022-08-02T14:15:29;13.35;;;1.33;;
53903;SDS011;39812;52.430;16.936;2022-08-02T14:17:54;3.78;;;1.15;;
53903;SDS011;39812;52.430;16.936;2022-08-02T14:20:20;2.78;;;0.95;;
53903;SDS011;39812;52.430;16.936;2022-08-02T14:22:45;4.50;;;1.08;;
53903;SDS011;39812;52.430;16.936;2022-08-02T14:25:11;3.03;;;1.00;;
53903;SDS011;39812;52.430;16.936;2022-08-02T14:27:36;1.90;;;0.80;;
53903;SDS011;39812;52.430;16.936;2022-08-02T14:30:02;3.63;;;1.00;;
53903;SDS011;39812;52.430;16.936;2022-08-02T14:32:28;4.15;;;0.80;;
53903;SDS011;39812;52.430;16.936;2022-08-02T14:34:54;4.80;;;1.02;;
53903;SDS011;39812;52.430;16.936;2022-08-02T14:37:19;2.05;;;1.02;;
53903;SDS011;39812;52.430;16.936;2022-08-02T14:39:45;3.58;;;0.98;;
53903;SDS011;39812;52.430;16.936;2022-08-02T14:42:10;4.05;;;0.98;;
53903;SDS011;39812;52.430;16.936;2022-08-02T14:44:36;4.80;;;0.90;;
53903;SDS011;39812;52.430;16.936;2022-08-02T14:47:02;2.92;;;0.77;;
53903;SDS011;39812;52.430;16.936;2022-08-02T14:49:29;3.45;;;0.85;;
53903;SDS011;39812;52.430;16.936;2022-08-02T14:51:55;3.58;;;1.30;;
53903;SDS011;39812;52.430;16.936;2022-08-02T14:54:21;3.83;;;1.05;;
53903;SDS011;39812;52.430;16.936;2022-08-02T14:56:49;2.67;;;1.10;;
53903;SDS011;39812;52.430;16.936;2022-08-02T14:59:14;2.63;;;0.98;;
53903;SDS011;39812;52.430;16.936;2022-08-02T15:01:40;2.60;;;0.90;;
53903;SDS011;39812;52.430;16.936;2022-08-02T15:04:05;5.70;;;1.15;;
53903;SDS011;39812;52.430;16.936;2022-08-02T15:06:31;4.75;;;1.27;;
53903;SDS011;39812;52.430;16.936;2022-08-02T15:08:57;2.25;;;1.05;;